Аэропорт: Сокол. Магадан

ICAO: UHMM

METAR:
2024-07-24 14:00:00
UHMM 241400Z 01002MPS 9000 -SHRA OVC029CB 16/16 Q1009 RMK QFE742 R28/02002MPS
TAF:
2024-07-24 13:44:00
TAF UHMM 241344Z 2415/2521 31003G08MPS 5000 -SHRA BKN020CB 
  TEMPO 2415/2503 3100 -SHRA BR SCT011 BKN020CB 
  FM250500 10003G09MPS 9999 BKN020CB